Spirit Of Philadelphia — WDD4763 — position and weather

sailwx.info

Track history (hours):
 
Tides and Currents Weather Stations Pressure Air Temp Water Temp Dewpoint Dewpoint Depression Visibility Wind Speed Wind Dir Waves Ship Positions

Spirit Of Philadelphia

Owner: Spirit Cruises, LLC, Chicago, IL. More information available from US FCC via Universal Licensing System and Coast Guard Vessel Documentation Center.

Last reported at 2018-Feb-21 02:42 UTC. Time now 2018-Feb-24 06:34 UTC.
Position N 39°56' W 075°08'.

Length 48 m; draft 2.1 m.

Type: Passenger vessel. MMSI: 367148710.

Date/timePositionNaut miles runAvg speedWind from/ knotsBaromVisibWave heightAir tempDewpointWater temp
2018-Feb-21 02:42N 39°56' W 075°08'0 0.0
2018-Feb-21 02:30N 39°56' W 075°08'2 3.8
2018-Feb-21 02:00N 39°55' W 075°08'2 3.7
2018-Feb-21 01:31N 39°53' W 075°09'4 7.9
2018-Feb-21 01:00N 39°57' W 075°08'1 2.0
2018-Feb-21 00:31N 39°58' W 075°08'1 2.8
2018-Feb-21 00:00N 39°56' W 075°08'0 0.0
2018-Feb-20 23:30N 39°56' W 075°08'0 0.0
2018-Feb-20 23:00N 39°56' W 075°08'0 0.0
2018-Feb-20 22:31N 39°56' W 075°08'0 0.0
2018-Feb-20 22:00N 39°56' W 075°08'0 0.0
2018-Feb-20 21:31N 39°56' W 075°08'0 0.0
2018-Feb-20 21:00N 39°56' W 075°08'0 0.0
2018-Feb-20 20:31N 39°56' W 075°08'0 0.0
2018-Feb-20 20:00N 39°56' W 075°08'  
2018-Feb-18 04:34N 39°56' W 075°08'0 0.0
2018-Feb-18 04:30N 39°56' W 075°08'0 0.0
2018-Feb-18 04:00N 39°56' W 075°08'0 0.0
2018-Feb-18 03:30N 39°56' W 075°08'1 1.3
2018-Feb-18 03:00N 39°56' W 075°08'0 0.8
2018-Feb-18 02:30N 39°56' W 075°08'1 2.6
2018-Feb-18 02:00N 39°55' W 075°08'0 0.4
2018-Feb-18 01:30N 39°55' W 075°08'2 4.1
2018-Feb-18 01:00N 39°57' W 075°08'0 0.7
2018-Feb-18 00:30N 39°56' W 075°08'0 0.0
2018-Feb-18 00:00N 39°56' W 075°08'0 0.0
2018-Feb-17 23:29N 39°56' W 075°08'0 0.0
2018-Feb-17 23:00N 39°56' W 075°08'0 0.0
2018-Feb-17 22:29N 39°56' W 075°08'0 0.0
2018-Feb-17 22:00N 39°56' W 075°08'0 0.0
2018-Feb-17 21:29N 39°56' W 075°08'0 0.0
2018-Feb-17 21:00N 39°56' W 075°08'0 0.0
2018-Feb-17 20:30N 39°56' W 075°08'0 0.0
2018-Feb-17 20:00N 39°56' W 075°08'0 0.0
2018-Feb-17 19:29N 39°56' W 075°08'0 0.0
2018-Feb-17 19:00N 39°56' W 075°08'0 0.0
2018-Feb-17 18:30N 39°56' W 075°08'0 0.8
2018-Feb-17 18:00N 39°57' W 075°08'3 5.1
2018-Feb-17 17:30N 39°54' W 075°08'2 4.2
2018-Feb-17 17:00N 39°56' W 075°08'0 0.4
2018-Feb-17 16:30N 39°56' W 075°08'  
2018-Feb-15 02:54N 39°56' W 075°08'0 0.0
2018-Feb-15 02:30N 39°56' W 075°08'0 0.6
2018-Feb-15 02:00N 39°57' W 075°08'2 4.1
2018-Feb-15 01:30N 39°55' W 075°08'3 6.4
2018-Feb-15 01:00N 39°58' W 075°07'1 2.2
2018-Feb-15 00:30N 39°57' W 075°08'1 1.1
2018-Feb-14 23:59N 39°56' W 075°08'  
2018-Feb-11 20:17N 39°56' W 075°08'0 0.0
2018-Feb-11 20:00N 39°56' W 075°08'0 1.0
2018-Feb-11 19:30N 39°56' W 075°08'1 2.0
2018-Feb-11 19:00N 39°55' W 075°08'1 2.5
2018-Feb-11 18:30N 39°56' W 075°08'0 0.5
2018-Feb-11 18:00N 39°56' W 075°08'0 0.0
2018-Feb-11 03:49N 39°56' W 075°08'0 0.0
2018-Feb-11 03:30N 39°56' W 075°08'0 0.7
2018-Feb-11 03:01N 39°57' W 075°08'  
Track history (hours):
 
Tides and Currents Weather Stations Pressure Air Temp Water Temp Dewpoint Dewpoint Depression Visibility Wind Speed Wind Dir Waves Ship Positions

Spirit Of Philadelphia

Owner: Spirit Cruises, LLC, Chicago, IL. More information available from US FCC via Universal Licensing System and Coast Guard Vessel Documentation Center.

Last reported at 2018-Feb-21 02:42 UTC. Time now 2018-Feb-24 06:34 UTC.
Position N 39°56' W 075°08'.

Length 48 m; draft 2.1 m.

Type: Passenger vessel. MMSI: 367148710.

Date/timePositionNaut miles runAvg speedWind from/ knotsBaromVisibWave heightAir tempDewpointWater temp
2018-Feb-21 02:42N 39°56' W 075°08'0 0.0
2018-Feb-21 02:30N 39°56' W 075°08'2 3.8
2018-Feb-21 02:00N 39°55' W 075°08'2 3.7
2018-Feb-21 01:31N 39°53' W 075°09'4 7.9
2018-Feb-21 01:00N 39°57' W 075°08'1 2.0
2018-Feb-21 00:31N 39°58' W 075°08'1 2.8
2018-Feb-21 00:00N 39°56' W 075°08'0 0.0
2018-Feb-20 23:30N 39°56' W 075°08'0 0.0
2018-Feb-20 23:00N 39°56' W 075°08'0 0.0
2018-Feb-20 22:31N 39°56' W 075°08'0 0.0
2018-Feb-20 22:00N 39°56' W 075°08'0 0.0
2018-Feb-20 21:31N 39°56' W 075°08'0 0.0
2018-Feb-20 21:00N 39°56' W 075°08'0 0.0
2018-Feb-20 20:31N 39°56' W 075°08'0 0.0
2018-Feb-20 20:00N 39°56' W 075°08'  
2018-Feb-18 04:34N 39°56' W 075°08'0 0.0
2018-Feb-18 04:30N 39°56' W 075°08'0 0.0
2018-Feb-18 04:00N 39°56' W 075°08'0 0.0
2018-Feb-18 03:30N 39°56' W 075°08'1 1.3
2018-Feb-18 03:00N 39°56' W 075°08'0 0.8
2018-Feb-18 02:30N 39°56' W 075°08'1 2.6
2018-Feb-18 02:00N 39°55' W 075°08'0 0.4
2018-Feb-18 01:30N 39°55' W 075°08'2 4.1
2018-Feb-18 01:00N 39°57' W 075°08'0 0.7
2018-Feb-18 00:30N 39°56' W 075°08'0 0.0
2018-Feb-18 00:00N 39°56' W 075°08'0 0.0
2018-Feb-17 23:29N 39°56' W 075°08'0 0.0
2018-Feb-17 23:00N 39°56' W 075°08'0 0.0
2018-Feb-17 22:29N 39°56' W 075°08'0 0.0
2018-Feb-17 22:00N 39°56' W 075°08'0 0.0
2018-Feb-17 21:29N 39°56' W 075°08'0 0.0
2018-Feb-17 21:00N 39°56' W 075°08'0 0.0
2018-Feb-17 20:30N 39°56' W 075°08'0 0.0
2018-Feb-17 20:00N 39°56' W 075°08'0 0.0
2018-Feb-17 19:29N 39°56' W 075°08'0 0.0
2018-Feb-17 19:00N 39°56' W 075°08'0 0.0
2018-Feb-17 18:30N 39°56' W 075°08'0 0.8
2018-Feb-17 18:00N 39°57' W 075°08'3 5.1
2018-Feb-17 17:30N 39°54' W 075°08'2 4.2
2018-Feb-17 17:00N 39°56' W 075°08'0 0.4
2018-Feb-17 16:30N 39°56' W 075°08'  
2018-Feb-15 02:54N 39°56' W 075°08'0 0.0
2018-Feb-15 02:30N 39°56' W 075°08'0 0.6
2018-Feb-15 02:00N 39°57' W 075°08'2 4.1
2018-Feb-15 01:30N 39°55' W 075°08'3 6.4
2018-Feb-15 01:00N 39°58' W 075°07'1 2.2
2018-Feb-15 00:30N 39°57' W 075°08'1 1.1
2018-Feb-14 23:59N 39°56' W 075°08'  
2018-Feb-11 20:17N 39°56' W 075°08'0 0.0
2018-Feb-11 20:00N 39°56' W 075°08'0 1.0
2018-Feb-11 19:30N 39°56' W 075°08'1 2.0
2018-Feb-11 19:00N 39°55' W 075°08'1 2.5
2018-Feb-11 18:30N 39°56' W 075°08'0 0.5
2018-Feb-11 18:00N 39°56' W 075°08'0 0.0
2018-Feb-11 03:49N 39°56' W 075°08'0 0.0
2018-Feb-11 03:30N 39°56' W 075°08'0 0.7
2018-Feb-11 03:01N 39°57' W 075°08'  

Dump ship's entire track history